sensor_id;sensor_type;location;lat;lon;timestamp;temperature;humidity
78345;DHT22;67620;51.134;6.548;2023-07-20T00:01:22;24.40;54.40
78345;DHT22;67620;51.134;6.548;2023-07-20T00:03:48;24.40;54.50
78345;DHT22;67620;51.134;6.548;2023-07-20T00:06:20;24.40;54.50
78345;DHT22;67620;51.134;6.548;2023-07-20T00:08:46;24.40;54.50
78345;DHT22;67620;51.134;6.548;2023-07-20T00:11:11;24.40;54.50
78345;DHT22;67620;51.134;6.548;2023-07-20T00:13:39;24.40;54.50
78345;DHT22;67620;51.134;6.548;2023-07-20T00:16:04;24.40;54.50
78345;DHT22;67620;51.134;6.548;2023-07-20T00:18:30;24.40;54.60
78345;DHT22;67620;51.134;6.548;2023-07-20T00:20:55;24.40;54.50
78345;DHT22;67620;51.134;6.548;2023-07-20T00:23:21;24.40;54.50
78345;DHT22;67620;51.134;6.548;2023-07-20T00:25:50;24.40;54.50
78345;DHT22;67620;51.134;6.548;2023-07-20T00:28:16;24.40;54.60
78345;DHT22;67620;51.134;6.548;2023-07-20T00:30:41;24.40;54.50
78345;DHT22;67620;51.134;6.548;2023-07-20T00:33:10;24.40;54.50
78345;DHT22;67620;51.134;6.548;2023-07-20T00:35:36;24.40;54.60
78345;DHT22;67620;51.134;6.548;2023-07-20T00:38:03;24.40;54.50
78345;DHT22;67620;51.134;6.548;2023-07-20T00:40:28;24.40;54.60
78345;DHT22;67620;51.134;6.548;2023-07-20T00:42:54;24.40;54.50
78345;DHT22;67620;51.134;6.548;2023-07-20T00:45:19;24.40;54.50
78345;DHT22;67620;51.134;6.548;2023-07-20T00:47:45;24.40;54.60
78345;DHT22;67620;51.134;6.548;2023-07-20T00:50:11;24.40;54.60
78345;DHT22;67620;51.134;6.548;2023-07-20T00:52:37;24.40;54.50
78345;DHT22;67620;51.134;6.548;2023-07-20T00:55:05;24.30;54.50
78345;DHT22;67620;51.134;6.548;2023-07-20T00:57:31;24.40;54.50
78345;DHT22;67620;51.134;6.548;2023-07-20T00:59:57;24.30;54.60
78345;DHT22;67620;51.134;6.548;2023-07-20T01:02:23;24.30;54.50
78345;DHT22;67620;51.134;6.548;2023-07-20T01:04:48;24.40;54.60
78345;DHT22;67620;51.134;6.548;2023-07-20T01:07:38;24.40;54.50
78345;DHT22;67620;51.134;6.548;2023-07-20T01:12:57;24.30;54.50
78345;DHT22;67620;51.134;6.548;2023-07-20T01:15:23;24.30;54.50
78345;DHT22;67620;51.134;6.548;2023-07-20T01:17:48;24.30;54.50
78345;DHT22;67620;51.134;6.548;2023-07-20T01:20:16;24.30;54.50
78345;DHT22;67620;51.134;6.548;2023-07-20T01:33:24;24.30;54.60
78345;DHT22;67620;51.134;6.548;2023-07-20T01:35:57;24.30;54.60
78345;DHT22;67620;51.134;6.548;2023-07-20T01:38:24;24.30;54.60
78345;DHT22;67620;51.134;6.548;2023-07-20T01:40:50;24.30;54.60
78345;DHT22;67620;51.134;6.548;2023-07-20T01:43:17;24.30;54.70
78345;DHT22;67620;51.134;6.548;2023-07-20T01:45:43;24.30;54.60
78345;DHT22;67620;51.134;6.548;2023-07-20T01:48:09;24.30;54.60
78345;DHT22;67620;51.134;6.548;2023-07-20T01:50:34;24.30;54.60
78345;DHT22;67620;51.134;6.548;2023-07-20T01:53:00;24.30;54.60
78345;DHT22;67620;51.134;6.548;2023-07-20T01:55:26;24.30;54.60
78345;DHT22;67620;51.134;6.548;2023-07-20T01:57:52;24.30;54.60
78345;DHT22;67620;51.134;6.548;2023-07-20T02:00:18;24.30;54.60
78345;DHT22;67620;51.134;6.548;2023-07-20T02:02:46;24.30;54.60
78345;DHT22;67620;51.134;6.548;2023-07-20T02:05:12;24.30;54.60
78345;DHT22;67620;51.134;6.548;2023-07-20T02:07:38;24.30;54.60
78345;DHT22;67620;51.134;6.548;2023-07-20T02:10:03;24.30;54.60
78345;DHT22;67620;51.134;6.548;2023-07-20T02:12:29;24.30;54.50
78345;DHT22;67620;51.134;6.548;2023-07-20T02:14:54;24.30;54.60
78345;DHT22;67620;51.134;6.548;2023-07-20T02:17:20;24.30;54.50
78345;DHT22;67620;51.134;6.548;2023-07-20T02:19:45;24.30;54.60
78345;DHT22;67620;51.134;6.548;2023-07-20T02:22:12;24.30;54.60
78345;DHT22;67620;51.134;6.548;2023-07-20T02:24:37;24.30;54.60
78345;DHT22;67620;51.134;6.548;2023-07-20T02:27:03;24.30;54.60
78345;DHT22;67620;51.134;6.548;2023-07-20T02:29:29;24.30;54.60
78345;DHT22;67620;51.134;6.548;2023-07-20T02:31:54;24.30;54.60
78345;DHT22;67620;51.134;6.548;2023-07-20T02:34:20;24.30;54.60
78345;DHT22;67620;51.134;6.548;2023-07-20T02:36:45;24.30;54.60
78345;DHT22;67620;51.134;6.548;2023-07-20T02:39:11;24.30;54.70
78345;DHT22;67620;51.134;6.548;2023-07-20T02:41:37;24.30;54.60
78345;DHT22;67620;51.134;6.548;2023-07-20T02:44:02;24.30;54.70
78345;DHT22;67620;51.134;6.548;2023-07-20T02:46:28;24.30;54.60
78345;DHT22;67620;51.134;6.548;2023-07-20T02:48:55;24.30;54.60
78345;DHT22;67620;51.134;6.548;2023-07-20T02:51:21;24.30;54.60
78345;DHT22;67620;51.134;6.548;2023-07-20T02:53:46;24.30;54.60
78345;DHT22;67620;51.134;6.548;2023-07-20T02:56:12;24.30;54.60
78345;DHT22;67620;51.134;6.548;2023-07-20T02:58:41;24.30;54.60
78345;DHT22;67620;51.134;6.548;2023-07-20T03:01:09;24.30;54.60
78345;DHT22;67620;51.134;6.548;2023-07-20T03:03:35;24.30;54.60
78345;DHT22;67620;51.134;6.548;2023-07-20T03:06:07;24.30;54.60
78345;DHT22;67620;51.134;6.548;2023-07-20T03:08:34;24.30;54.70
78345;DHT22;67620;51.134;6.548;2023-07-20T03:11:01;24.30;54.60
78345;DHT22;67620;51.134;6.548;2023-07-20T03:13:26;24.30;54.60
78345;DHT22;67620;51.134;6.548;2023-07-20T03:15:53;24.30;54.60
78345;DHT22;67620;51.134;6.548;2023-07-20T03:18:19;24.30;54.60
78345;DHT22;67620;51.134;6.548;2023-07-20T03:20:44;24.30;54.60
78345;DHT22;67620;51.134;6.548;2023-07-20T03:23:10;24.30;54.70
78345;DHT22;67620;51.134;6.548;2023-07-20T03:25:35;24.30;54.70
78345;DHT22;67620;51.134;6.548;2023-07-20T03:28:03;24.30;54.70
78345;DHT22;67620;51.134;6.548;2023-07-20T03:30:28;24.30;54.60
78345;DHT22;67620;51.134;6.548;2023-07-20T03:32:54;24.30;54.70
78345;DHT22;67620;51.134;6.548;2023-07-20T03:35:19;24.30;54.70
78345;DHT22;67620;51.134;6.548;2023-07-20T03:37:45;24.30;54.70
78345;DHT22;67620;51.134;6.548;2023-07-20T03:40:10;24.20;54.60
78345;DHT22;67620;51.134;6.548;2023-07-20T03:42:36;24.20;54.70
78345;DHT22;67620;51.134;6.548;2023-07-20T03:45:02;24.30;54.70
78345;DHT22;67620;51.134;6.548;2023-07-20T03:47:28;24.20;54.70
78345;DHT22;67620;51.134;6.548;2023-07-20T03:49:54;24.30;54.70
78345;DHT22;67620;51.134;6.548;2023-07-20T03:52:19;24.30;54.70
78345;DHT22;67620;51.134;6.548;2023-07-20T03:54:45;24.20;54.70
78345;DHT22;67620;51.134;6.548;2023-07-20T03:57:10;24.30;54.70
78345;DHT22;67620;51.134;6.548;2023-07-20T03:59:38;24.20;54.70
78345;DHT22;67620;51.134;6.548;2023-07-20T04:02:04;24.20;54.70
78345;DHT22;67620;51.134;6.548;2023-07-20T04:04:31;24.20;54.70
78345;DHT22;67620;51.134;6.548;2023-07-20T04:06:56;24.20;54.60
78345;DHT22;67620;51.134;6.548;2023-07-20T04:09:22;24.20;54.70
78345;DHT22;67620;51.134;6.548;2023-07-20T04:11:48;24.20;54.70
78345;DHT22;67620;51.134;6.548;2023-07-20T04:14:13;24.20;54.70
78345;DHT22;67620;51.134;6.548;2023-07-20T04:16:38;24.20;54.70
78345;DHT22;67620;51.134;6.548;2023-07-20T04:19:04;24.20;54.60
78345;DHT22;67620;51.134;6.548;2023-07-20T04:21:29;24.20;54.60
78345;DHT22;67620;51.134;6.548;2023-07-20T04:23:55;24.20;54.70
78345;DHT22;67620;51.134;6.548;2023-07-20T04:26:21;24.20;54.70
78345;DHT22;67620;51.134;6.548;2023-07-20T04:28:46;24.20;54.70
78345;DHT22;67620;51.134;6.548;2023-07-20T04:31:14;24.20;54.70
78345;DHT22;67620;51.134;6.548;2023-07-20T04:33:40;24.20;54.70
78345;DHT22;67620;51.134;6.548;2023-07-20T04:36:06;24.20;54.70
78345;DHT22;67620;51.134;6.548;2023-07-20T04:38:32;24.20;54.60
78345;DHT22;67620;51.134;6.548;2023-07-20T04:40:58;24.20;54.60
78345;DHT22;67620;51.134;6.548;2023-07-20T04:43:23;24.20;54.70
78345;DHT22;67620;51.134;6.548;2023-07-20T04:45:49;24.20;54.70
78345;DHT22;67620;51.134;6.548;2023-07-20T04:48:16;24.20;54.70
78345;DHT22;67620;51.134;6.548;2023-07-20T04:50:43;24.20;54.70
78345;DHT22;67620;51.134;6.548;2023-07-20T04:53:09;24.20;54.70
78345;DHT22;67620;51.134;6.548;2023-07-20T04:55:38;24.20;54.70
78345;DHT22;67620;51.134;6.548;2023-07-20T04:58:04;24.20;54.80
78345;DHT22;67620;51.134;6.548;2023-07-20T05:00:31;24.20;54.80
78345;DHT22;67620;51.134;6.548;2023-07-20T05:02:57;24.20;54.80
78345;DHT22;67620;51.134;6.548;2023-07-20T05:05:23;24.20;54.80
78345;DHT22;67620;51.134;6.548;2023-07-20T05:07:48;24.20;54.80
78345;DHT22;67620;51.134;6.548;2023-07-20T05:10:14;24.20;54.80
78345;DHT22;67620;51.134;6.548;2023-07-20T05:12:39;24.20;54.80
78345;DHT22;67620;51.134;6.548;2023-07-20T05:15:05;24.20;54.80
78345;DHT22;67620;51.134;6.548;2023-07-20T05:17:31;24.20;54.80
78345;DHT22;67620;51.134;6.548;2023-07-20T05:19:56;24.20;54.80
78345;DHT22;67620;51.134;6.548;2023-07-20T05:22:22;24.20;54.80
78345;DHT22;67620;51.134;6.548;2023-07-20T05:24:48;24.20;54.80
78345;DHT22;67620;51.134;6.548;2023-07-20T05:27:13;24.20;54.80
78345;DHT22;67620;51.134;6.548;2023-07-20T05:29:44;24.20;54.80
78345;DHT22;67620;51.134;6.548;2023-07-20T05:32:09;24.20;54.80
78345;DHT22;67620;51.134;6.548;2023-07-20T05:34:35;24.20;54.80
78345;DHT22;67620;51.134;6.548;2023-07-20T05:37:00;24.20;54.80
78345;DHT22;67620;51.134;6.548;2023-07-20T05:39:26;24.20;54.80
78345;DHT22;67620;51.134;6.548;2023-07-20T05:41:51;24.20;54.80
78345;DHT22;67620;51.134;6.548;2023-07-20T05:44:17;24.20;54.80
78345;DHT22;67620;51.134;6.548;2023-07-20T05:46:42;24.20;54.80
78345;DHT22;67620;51.134;6.548;2023-07-20T05:49:08;24.20;54.80
78345;DHT22;67620;51.134;6.548;2023-07-20T05:51:33;24.20;54.80
78345;DHT22;67620;51.134;6.548;2023-07-20T05:53:59;24.20;54.80
78345;DHT22;67620;51.134;6.548;2023-07-20T05:56:24;24.20;54.80
78345;DHT22;67620;51.134;6.548;2023-07-20T05:58:50;24.20;54.80
78345;DHT22;67620;51.134;6.548;2023-07-20T06:01:15;24.20;54.80
78345;DHT22;67620;51.134;6.548;2023-07-20T06:03:41;24.20;54.80
78345;DHT22;67620;51.134;6.548;2023-07-20T06:06:06;24.20;54.90
78345;DHT22;67620;51.134;6.548;2023-07-20T06:08:34;24.20;54.80
78345;DHT22;67620;51.134;6.548;2023-07-20T06:11:00;24.20;54.80
78345;DHT22;67620;51.134;6.548;2023-07-20T06:13:25;24.20;54.80
78345;DHT22;67620;51.134;6.548;2023-07-20T06:15:51;24.20;54.80
78345;DHT22;67620;51.134;6.548;2023-07-20T06:18:17;24.20;54.80
78345;DHT22;67620;51.134;6.548;2023-07-20T06:20:42;24.20;54.90
78345;DHT22;67620;51.134;6.548;2023-07-20T06:23:07;24.20;54.90
78345;DHT22;67620;51.134;6.548;2023-07-20T06:25:33;24.20;54.80
78345;DHT22;67620;51.134;6.548;2023-07-20T06:27:58;24.20;54.80
78345;DHT22;67620;51.134;6.548;2023-07-20T06:30:24;24.20;54.90
78345;DHT22;67620;51.134;6.548;2023-07-20T06:32:50;24.10;54.80
78345;DHT22;67620;51.134;6.548;2023-07-20T06:35:15;24.20;54.90
78345;DHT22;67620;51.134;6.548;2023-07-20T06:37:41;24.20;54.80
78345;DHT22;67620;51.134;6.548;2023-07-20T06:40:07;24.20;54.80
78345;DHT22;67620;51.134;6.548;2023-07-20T06:42:34;24.20;54.80
78345;DHT22;67620;51.134;6.548;2023-07-20T06:45:00;24.10;54.80
78345;DHT22;67620;51.134;6.548;2023-07-20T06:47:26;24.20;54.80
78345;DHT22;67620;51.134;6.548;2023-07-20T06:49:51;24.20;54.70
78345;DHT22;67620;51.134;6.548;2023-07-20T06:52:17;24.20;54.80
78345;DHT22;67620;51.134;6.548;2023-07-20T06:54:42;24.20;54.70
78345;DHT22;67620;51.134;6.548;2023-07-20T06:57:08;24.20;54.80
78345;DHT22;67620;51.134;6.548;2023-07-20T06:59:33;24.20;54.80
78345;DHT22;67620;51.134;6.548;2023-07-20T07:01:59;24.20;54.80
78345;DHT22;67620;51.134;6.548;2023-07-20T07:04:24;24.20;54.70
78345;DHT22;67620;51.134;6.548;2023-07-20T07:06:50;24.20;54.80
78345;DHT22;67620;51.134;6.548;2023-07-20T07:09:15;24.20;54.80
78345;DHT22;67620;51.134;6.548;2023-07-20T07:11:41;24.20;54.80
78345;DHT22;67620;51.134;6.548;2023-07-20T07:14:06;24.20;54.80
78345;DHT22;67620;51.134;6.548;2023-07-20T07:16:32;24.20;54.80
78345;DHT22;67620;51.134;6.548;2023-07-20T07:18:57;24.20;54.80
78345;DHT22;67620;51.134;6.548;2023-07-20T07:21:23;24.20;54.80
78345;DHT22;67620;51.134;6.548;2023-07-20T07:23:50;24.20;54.80
78345;DHT22;67620;51.134;6.548;2023-07-20T07:26:18;24.20;54.80
78345;DHT22;67620;51.134;6.548;2023-07-20T07:28:44;24.20;54.80
78345;DHT22;67620;51.134;6.548;2023-07-20T07:31:10;24.20;54.70
78345;DHT22;67620;51.134;6.548;2023-07-20T07:33:35;24.20;54.80
78345;DHT22;67620;51.134;6.548;2023-07-20T07:36:01;24.20;54.80
78345;DHT22;67620;51.134;6.548;2023-07-20T07:38:26;24.20;54.80
78345;DHT22;67620;51.134;6.548;2023-07-20T07:40:52;24.20;54.80
78345;DHT22;67620;51.134;6.548;2023-07-20T07:43:17;24.20;54.80
78345;DHT22;67620;51.134;6.548;2023-07-20T07:45:43;24.20;54.80
78345;DHT22;67620;51.134;6.548;2023-07-20T07:48:08;24.20;54.80
78345;DHT22;67620;51.134;6.548;2023-07-20T07:50:36;24.20;54.80
78345;DHT22;67620;51.134;6.548;2023-07-20T07:53:02;24.20;54.80
78345;DHT22;67620;51.134;6.548;2023-07-20T07:55:28;24.20;54.80
78345;DHT22;67620;51.134;6.548;2023-07-20T07:57:54;24.20;54.80
78345;DHT22;67620;51.134;6.548;2023-07-20T08:00:20;24.20;54.70
78345;DHT22;67620;51.134;6.548;2023-07-20T08:02:46;24.20;54.70
78345;DHT22;67620;51.134;6.548;2023-07-20T08:05:14;24.20;54.70
78345;DHT22;67620;51.134;6.548;2023-07-20T08:07:40;24.20;54.70
78345;DHT22;67620;51.134;6.548;2023-07-20T08:10:06;24.20;54.70
78345;DHT22;67620;51.134;6.548;2023-07-20T08:12:32;24.20;54.70
78345;DHT22;67620;51.134;6.548;2023-07-20T08:14:57;24.20;54.70
78345;DHT22;67620;51.134;6.548;2023-07-20T08:17:23;24.20;54.70
78345;DHT22;67620;51.134;6.548;2023-07-20T08:19:48;24.20;54.70
78345;DHT22;67620;51.134;6.548;2023-07-20T08:22:14;24.20;54.70
78345;DHT22;67620;51.134;6.548;2023-07-20T08:24:40;24.20;54.70
78345;DHT22;67620;51.134;6.548;2023-07-20T08:27:06;24.20;54.80
78345;DHT22;67620;51.134;6.548;2023-07-20T08:29:32;24.20;54.80
78345;DHT22;67620;51.134;6.548;2023-07-20T08:31:57;24.20;54.80
78345;DHT22;67620;51.134;6.548;2023-07-20T08:34:23;24.20;54.80
78345;DHT22;67620;51.134;6.548;2023-07-20T08:36:48;24.20;54.70
78345;DHT22;67620;51.134;6.548;2023-07-20T08:39:14;24.20;54.70
78345;DHT22;67620;51.134;6.548;2023-07-20T08:41:42;24.20;54.70
78345;DHT22;67620;51.134;6.548;2023-07-20T08:44:08;24.20;54.70
78345;DHT22;67620;51.134;6.548;2023-07-20T08:46:35;24.20;54.70
78345;DHT22;67620;51.134;6.548;2023-07-20T08:49:00;24.20;54.70
78345;DHT22;67620;51.134;6.548;2023-07-20T08:51:29;24.20;54.80
78345;DHT22;67620;51.134;6.548;2023-07-20T08:53:55;24.20;54.70
78345;DHT22;67620;51.134;6.548;2023-07-20T08:56:21;24.20;54.70
78345;DHT22;67620;51.134;6.548;2023-07-20T08:58:49;24.20;54.60
78345;DHT22;67620;51.134;6.548;2023-07-20T09:01:14;24.20;54.70
78345;DHT22;67620;51.134;6.548;2023-07-20T09:03:41;24.20;54.70
78345;DHT22;67620;51.134;6.548;2023-07-20T09:06:08;24.20;54.70
78345;DHT22;67620;51.134;6.548;2023-07-20T09:08:37;24.20;54.70
78345;DHT22;67620;51.134;6.548;2023-07-20T09:11:02;24.20;54.70
78345;DHT22;67620;51.134;6.548;2023-07-20T09:13:28;24.20;54.60
78345;DHT22;67620;51.134;6.548;2023-07-20T09:15:54;24.20;54.60
78345;DHT22;67620;51.134;6.548;2023-07-20T09:18:25;24.20;54.70
78345;DHT22;67620;51.134;6.548;2023-07-20T09:20:50;24.20;54.70
78345;DHT22;67620;51.134;6.548;2023-07-20T09:23:16;24.20;54.70
78345;DHT22;67620;51.134;6.548;2023-07-20T09:25:42;24.20;54.60
78345;DHT22;67620;51.134;6.548;2023-07-20T09:28:07;24.20;54.60
78345;DHT22;67620;51.134;6.548;2023-07-20T09:30:33;24.20;54.70
78345;DHT22;67620;51.134;6.548;2023-07-20T09:32:59;24.20;54.70
78345;DHT22;67620;51.134;6.548;2023-07-20T09:35:25;24.20;54.70
78345;DHT22;67620;51.134;6.548;2023-07-20T09:37:58;24.20;54.70
78345;DHT22;67620;51.134;6.548;2023-07-20T09:40:25;24.20;54.70
78345;DHT22;67620;51.134;6.548;2023-07-20T09:42:52;24.20;54.70
78345;DHT22;67620;51.134;6.548;2023-07-20T09:45:19;24.20;54.70
78345;DHT22;67620;51.134;6.548;2023-07-20T09:47:45;24.20;54.70
78345;DHT22;67620;51.134;6.548;2023-07-20T09:50:11;24.20;54.70
78345;DHT22;67620;51.134;6.548;2023-07-20T09:52:40;24.20;54.70
78345;DHT22;67620;51.134;6.548;2023-07-20T09:55:10;24.20;54.70
78345;DHT22;67620;51.134;6.548;2023-07-20T09:57:39;24.20;54.70
78345;DHT22;67620;51.134;6.548;2023-07-20T10:00:06;24.20;54.70
78345;DHT22;67620;51.134;6.548;2023-07-20T10:02:42;24.20;54.70
78345;DHT22;67620;51.134;6.548;2023-07-20T10:05:11;24.20;54.70
78345;DHT22;67620;51.134;6.548;2023-07-20T10:07:49;24.20;54.60
78345;DHT22;67620;51.134;6.548;2023-07-20T10:10:16;24.20;54.60
78345;DHT22;67620;51.134;6.548;2023-07-20T10:12:44;24.20;54.60
78345;DHT22;67620;51.134;6.548;2023-07-20T10:15:12;24.20;54.60
78345;DHT22;67620;51.134;6.548;2023-07-20T10:17:49;24.20;54.60
78345;DHT22;67620;51.134;6.548;2023-07-20T10:20:19;24.20;54.50
78345;DHT22;67620;51.134;6.548;2023-07-20T10:22:48;24.20;54.50
78345;DHT22;67620;51.134;6.548;2023-07-20T10:25:16;24.20;54.60
78345;DHT22;67620;51.134;6.548;2023-07-20T10:27:42;24.20;54.60
78345;DHT22;67620;51.134;6.548;2023-07-20T10:30:08;24.20;54.60
78345;DHT22;67620;51.134;6.548;2023-07-20T10:32:33;24.20;54.60
78345;DHT22;67620;51.134;6.548;2023-07-20T10:34:59;24.20;54.60
78345;DHT22;67620;51.134;6.548;2023-07-20T10:37:53;24.20;54.60
78345;DHT22;67620;51.134;6.548;2023-07-20T10:42:51;24.20;54.60
78345;DHT22;67620;51.134;6.548;2023-07-20T10:45:19;24.20;54.60
78345;DHT22;67620;51.134;6.548;2023-07-20T10:47:48;24.20;54.60
78345;DHT22;67620;51.134;6.548;2023-07-20T10:50:13;24.20;54.60
78345;DHT22;67620;51.134;6.548;2023-07-20T10:52:42;24.20;54.60
78345;DHT22;67620;51.134;6.548;2023-07-20T10:55:14;24.20;54.60
78345;DHT22;67620;51.134;6.548;2023-07-20T10:57:40;24.20;54.60
78345;DHT22;67620;51.134;6.548;2023-07-20T11:00:13;24.20;54.60
78345;DHT22;67620;51.134;6.548;2023-07-20T11:02:44;24.20;54.50
78345;DHT22;67620;51.134;6.548;2023-07-20T11:07:57;24.20;54.60
78345;DHT22;67620;51.134;6.548;2023-07-20T11:10:23;24.20;54.60
78345;DHT22;67620;51.134;6.548;2023-07-20T11:13:20;24.20;54.50
78345;DHT22;67620;51.134;6.548;2023-07-20T11:16:01;24.20;54.60
78345;DHT22;67620;51.134;6.548;2023-07-20T11:18:28;24.20;54.50
78345;DHT22;67620;51.134;6.548;2023-07-20T11:20:54;24.20;54.50
78345;DHT22;67620;51.134;6.548;2023-07-20T11:23:20;24.20;54.50
78345;DHT22;67620;51.134;6.548;2023-07-20T11:25:46;24.20;54.50
78345;DHT22;67620;51.134;6.548;2023-07-20T11:28:12;24.30;54.60
78345;DHT22;67620;51.134;6.548;2023-07-20T11:30:38;24.20;54.50
78345;DHT22;67620;51.134;6.548;2023-07-20T11:33:08;24.30;54.50
78345;DHT22;67620;51.134;6.548;2023-07-20T11:35:44;24.30;54.50
78345;DHT22;67620;51.134;6.548;2023-07-20T11:38:12;24.20;54.50
78345;DHT22;67620;51.134;6.548;2023-07-20T11:40:43;24.20;54.60
78345;DHT22;67620;51.134;6.548;2023-07-20T11:43:10;24.20;54.50
78345;DHT22;67620;51.134;6.548;2023-07-20T11:45:37;24.20;54.60
78345;DHT22;67620;51.134;6.548;2023-07-20T11:48:03;24.20;54.50
78345;DHT22;67620;51.134;6.548;2023-07-20T11:50:29;24.20;54.50
78345;DHT22;67620;51.134;6.548;2023-07-20T11:52:54;24.20;54.60
78345;DHT22;67620;51.134;6.548;2023-07-20T11:55:20;24.30;54.50
78345;DHT22;67620;51.134;6.548;2023-07-20T11:58:05;24.20;54.50
78345;DHT22;67620;51.134;6.548;2023-07-20T12:00:32;24.20;54.50
78345;DHT22;67620;51.134;6.548;2023-07-20T12:02:58;24.20;54.60
78345;DHT22;67620;51.134;6.548;2023-07-20T12:05:23;24.20;54.60
78345;DHT22;67620;51.134;6.548;2023-07-20T12:07:50;24.20;54.60
78345;DHT22;67620;51.134;6.548;2023-07-20T12:10:26;24.20;54.60
78345;DHT22;67620;51.134;6.548;2023-07-20T12:12:53;24.20;54.50
78345;DHT22;67620;51.134;6.548;2023-07-20T12:15:24;24.20;54.50
78345;DHT22;67620;51.134;6.548;2023-07-20T12:17:51;24.20;54.50
78345;DHT22;67620;51.134;6.548;2023-07-20T12:20:34;24.20;54.60
78345;DHT22;67620;51.134;6.548;2023-07-20T12:23:09;24.20;54.50
78345;DHT22;67620;51.134;6.548;2023-07-20T12:25:38;24.20;54.50
78345;DHT22;67620;51.134;6.548;2023-07-20T12:28:18;24.20;54.40
78345;DHT22;67620;51.134;6.548;2023-07-20T12:30:45;24.30;54.50
78345;DHT22;67620;51.134;6.548;2023-07-20T12:33:11;24.20;54.40
78345;DHT22;67620;51.134;6.548;2023-07-20T12:35:39;24.30;54.40
78345;DHT22;67620;51.134;6.548;2023-07-20T12:38:05;24.20;54.50
78345;DHT22;67620;51.134;6.548;2023-07-20T12:40:31;24.30;54.50
78345;DHT22;67620;51.134;6.548;2023-07-20T12:42:57;24.30;54.40
78345;DHT22;67620;51.134;6.548;2023-07-20T12:45:23;24.30;54.40
78345;DHT22;67620;51.134;6.548;2023-07-20T12:47:49;24.30;54.50
78345;DHT22;67620;51.134;6.548;2023-07-20T12:50:14;24.30;54.50
78345;DHT22;67620;51.134;6.548;2023-07-20T12:52:40;24.30;54.50
78345;DHT22;67620;51.134;6.548;2023-07-20T12:55:07;24.30;54.50
78345;DHT22;67620;51.134;6.548;2023-07-20T12:57:37;24.30;54.50
78345;DHT22;67620;51.134;6.548;2023-07-20T13:00:04;24.30;54.40
78345;DHT22;67620;51.134;6.548;2023-07-20T13:02:32;24.30;54.50
78345;DHT22;67620;51.134;6.548;2023-07-20T13:04:57;24.30;54.40
78345;DHT22;67620;51.134;6.548;2023-07-20T13:07:37;24.30;54.50
78345;DHT22;67620;51.134;6.548;2023-07-20T13:10:03;24.30;54.50
78345;DHT22;67620;51.134;6.548;2023-07-20T13:12:32;24.30;54.50
78345;DHT22;67620;51.134;6.548;2023-07-20T13:14:58;24.30;54.50
78345;DHT22;67620;51.134;6.548;2023-07-20T13:17:26;24.30;54.40
78345;DHT22;67620;51.134;6.548;2023-07-20T13:19:52;24.30;54.50
78345;DHT22;67620;51.134;6.548;2023-07-20T13:22:17;24.30;54.40
78345;DHT22;67620;51.134;6.548;2023-07-20T13:24:45;24.30;54.50
78345;DHT22;67620;51.134;6.548;2023-07-20T13:27:17;24.30;54.50
78345;DHT22;67620;51.134;6.548;2023-07-20T13:29:43;24.30;54.40
78345;DHT22;67620;51.134;6.548;2023-07-20T13:32:09;24.30;54.30
78345;DHT22;67620;51.134;6.548;2023-07-20T13:34:35;24.30;54.30
78345;DHT22;67620;51.134;6.548;2023-07-20T13:37:02;24.30;54.30
78345;DHT22;67620;51.134;6.548;2023-07-20T13:39:28;24.30;54.20
78345;DHT22;67620;51.134;6.548;2023-07-20T13:41:54;24.30;54.20
78345;DHT22;67620;51.134;6.548;2023-07-20T13:44:20;24.30;54.20
78345;DHT22;67620;51.134;6.548;2023-07-20T13:46:46;24.30;54.20
78345;DHT22;67620;51.134;6.548;2023-07-20T13:49:12;24.30;54.20
78345;DHT22;67620;51.134;6.548;2023-07-20T13:51:37;24.30;54.30
78345;DHT22;67620;51.134;6.548;2023-07-20T13:54:03;24.30;54.20
78345;DHT22;67620;51.134;6.548;2023-07-20T13:56:29;24.30;54.30
78345;DHT22;67620;51.134;6.548;2023-07-20T13:58:54;24.30;54.20
78345;DHT22;67620;51.134;6.548;2023-07-20T14:01:20;24.30;54.30
78345;DHT22;67620;51.134;6.548;2023-07-20T14:03:48;24.30;54.30
78345;DHT22;67620;51.134;6.548;2023-07-20T14:06:14;24.30;54.20
78345;DHT22;67620;51.134;6.548;2023-07-20T14:08:40;24.30;54.20
78345;DHT22;67620;51.134;6.548;2023-07-20T14:11:06;24.30;54.30
78345;DHT22;67620;51.134;6.548;2023-07-20T14:13:31;24.30;54.20
78345;DHT22;67620;51.134;6.548;2023-07-20T14:15:57;24.30;54.30
78345;DHT22;67620;51.134;6.548;2023-07-20T14:18:23;24.30;54.30
78345;DHT22;67620;51.134;6.548;2023-07-20T14:20:48;24.30;54.30
78345;DHT22;67620;51.134;6.548;2023-07-20T14:23:14;24.30;54.30
78345;DHT22;67620;51.134;6.548;2023-07-20T14:25:40;24.30;54.20
78345;DHT22;67620;51.134;6.548;2023-07-20T14:28:05;24.30;54.20
78345;DHT22;67620;51.134;6.548;2023-07-20T14:30:31;24.30;54.30
78345;DHT22;67620;51.134;6.548;2023-07-20T14:32:57;24.30;54.30
78345;DHT22;67620;51.134;6.548;2023-07-20T14:35:22;24.30;54.20
78345;DHT22;67620;51.134;6.548;2023-07-20T14:37:47;24.30;54.20
78345;DHT22;67620;51.134;6.548;2023-07-20T14:40:13;24.30;54.20
78345;DHT22;67620;51.134;6.548;2023-07-20T14:42:39;24.30;54.30
78345;DHT22;67620;51.134;6.548;2023-07-20T14:45:05;24.30;54.20
78345;DHT22;67620;51.134;6.548;2023-07-20T14:47:31;24.30;54.30
78345;DHT22;67620;51.134;6.548;2023-07-20T14:50:01;24.30;54.20
78345;DHT22;67620;51.134;6.548;2023-07-20T14:52:28;24.40;54.20
78345;DHT22;67620;51.134;6.548;2023-07-20T14:54:54;24.40;54.20
78345;DHT22;67620;51.134;6.548;2023-07-20T14:57:20;24.40;54.20
78345;DHT22;67620;51.134;6.548;2023-07-20T14:59:47;24.40;54.20
78345;DHT22;67620;51.134;6.548;2023-07-20T15:02:12;24.40;54.30
78345;DHT22;67620;51.134;6.548;2023-07-20T15:04:48;24.40;54.20
78345;DHT22;67620;51.134;6.548;2023-07-20T15:07:18;24.40;54.30
78345;DHT22;67620;51.134;6.548;2023-07-20T15:09:52;24.40;54.20
78345;DHT22;67620;51.134;6.548;2023-07-20T15:12:18;24.40;54.30
78345;DHT22;67620;51.134;6.548;2023-07-20T15:14:43;24.30;54.30
78345;DHT22;67620;51.134;6.548;2023-07-20T15:17:10;24.40;54.30
78345;DHT22;67620;51.134;6.548;2023-07-20T15:19:35;24.30;54.20
78345;DHT22;67620;51.134;6.548;2023-07-20T15:22:02;24.30;54.20
78345;DHT22;67620;51.134;6.548;2023-07-20T15:24:32;24.40;54.20
78345;DHT22;67620;51.134;6.548;2023-07-20T15:26:57;24.40;54.20
78345;DHT22;67620;51.134;6.548;2023-07-20T15:29:23;24.40;54.20
78345;DHT22;67620;51.134;6.548;2023-07-20T15:31:49;24.40;54.20
78345;DHT22;67620;51.134;6.548;2023-07-20T15:34:14;24.40;54.20
78345;DHT22;67620;51.134;6.548;2023-07-20T15:36:41;24.40;54.20
78345;DHT22;67620;51.134;6.548;2023-07-20T15:39:07;24.40;54.20
78345;DHT22;67620;51.134;6.548;2023-07-20T15:41:33;24.40;54.20
78345;DHT22;67620;51.134;6.548;2023-07-20T15:43:59;24.40;54.20
78345;DHT22;67620;51.134;6.548;2023-07-20T15:49:05;24.40;54.20